Aurora, Utah
Current Conditions -  °F | °C
As of 8:55 PM on Friday 24 Oct 2014 (Local Time) from KDTA Reporting Station
Clear Clear  
Wind Chill: 16°   Ceiling: Unl
Heat Index: 16°   Visibility: 10mi
Dew Point: -5°   Wind: 10mph
Humidity: 24%   Direction: 160°SSE
Pressure: 30.13"   Gusts: NA
Location:  38.92°N, 111.93°W
Report Text: KDTA 250255Z AUTO 16009KT 10SM CLR 16/M05 A3013 RMK AO1 T01591048
Loading
Personal Weather Stations






























Interactive Weather Map
Tropical Storm Tracking
New forecast layout! Learn more

10-Day Weather Forecast

Advertisements
Track Severe Weather on mobile